Time;durP1;ratioP1;P1;durP2;ratioP2;P2;SDS_P1;SDS_P2;PMS_P1;PMS_P2;Temp;Humidity;BMP_temperature;BMP_pressure;BME280_temperature;BME280_humidity;BME280_pressure;Samples;Min_cycle;Max_cycle;Signal;HPM_P1;HPM_P2
2021/11/25 00:01:54;;;;;;;67.10;22.65;;;7.50;99.90;;;;;;4857847;29;20112;-79
2021/11/25 00:04:20;;;;;;;67.93;21.75;;;7.50;99.90;;;;;;4861252;29;20455;-81
2021/11/25 00:06:46;;;;;;;73.05;22.67;;;7.50;99.90;;;;;;4848495;29;20037;-81
2021/11/25 00:09:12;;;;;;;63.15;20.67;;;7.50;99.90;;;;;;4857800;29;20456;-84
2021/11/25 00:11:38;;;;;;;68.18;22.92;;;7.40;99.90;;;;;;4861320;29;20504;-82
2021/11/25 00:14:04;;;;;;;56.33;21.65;;;7.40;99.90;;;;;;4842741;29;20072;-78
2021/11/25 00:16:30;;;;;;;69.18;22.33;;;7.40;99.90;;;;;;4857723;29;20517;-80
2021/11/25 00:18:56;;;;;;;63.75;19.42;;;7.40;99.90;;;;;;4844136;29;20034;-79
2021/11/25 00:21:22;;;;;;;64.30;21.73;;;7.40;99.90;;;;;;4844252;29;20414;-81
2021/11/25 00:23:48;;;;;;;60.20;21.85;;;7.40;99.90;;;;;;4859752;29;20057;-81
2021/11/25 00:26:14;;;;;;;60.63;21.17;;;7.30;99.90;;;;;;4857915;29;20108;-80
2021/11/25 00:28:40;;;;;;;63.25;22.17;;;7.40;99.90;;;;;;4843285;29;20117;-80
2021/11/25 00:31:05;;;;;;;61.00;21.63;;;7.40;99.90;;;;;;4858683;29;20565;-80
2021/11/25 00:33:31;;;;;;;64.88;22.20;;;7.50;99.90;;;;;;4844933;29;20120;-79
2021/11/25 00:35:57;;;;;;;68.57;21.40;;;7.40;99.90;;;;;;4848170;29;20034;-80
2021/11/25 00:38:23;;;;;;;57.63;20.33;;;7.40;99.90;;;;;;4849393;29;20044;-80
2021/11/25 00:40:48;;;;;;;64.25;23.05;;;7.40;99.90;;;;;;4842720;29;20433;-78
2021/11/25 00:43:14;;;;;;;69.60;22.25;;;7.40;99.90;;;;;;4856313;29;20399;-80
2021/11/25 00:45:40;;;;;;;65.10;21.77;;;7.40;99.90;;;;;;4857900;29;20082;-80
2021/11/25 00:48:06;;;;;;;69.15;22.42;;;7.40;99.90;;;;;;4861772;29;20436;-80
2021/11/25 00:50:32;;;;;;;58.63;20.67;;;7.40;99.90;;;;;;4845198;29;20030;-81
2021/11/25 00:52:58;;;;;;;53.22;20.13;;;7.40;99.90;;;;;;4852100;29;20086;-81
2021/11/25 00:55:27;;;;;;;53.22;19.50;;;7.40;99.90;;;;;;4860681;29;20109;-79
2021/11/25 00:57:54;;;;;;;60.42;19.60;;;7.40;99.90;;;;;;4854739;29;20427;-79
2021/11/25 01:00:22;;;;;;;57.63;19.73;;;7.40;99.90;;;;;;4861475;29;20081;-80
2021/11/25 01:02:49;;;;;;;53.97;18.77;;;7.40;99.90;;;;;;4857113;29;20050;-80
2021/11/25 01:05:16;;;;;;;53.53;21.02;;;7.40;99.90;;;;;;4861332;29;20165;-79
2021/11/25 01:07:45;;;;;;;52.53;20.70;;;7.40;99.90;;;;;;4861575;29;20479;-80
2021/11/25 01:10:14;;;;;;;51.58;19.33;;;7.40;99.90;;;;;;4836280;29;20109;-80
2021/11/25 01:12:42;;;;;;;52.10;19.15;;;7.40;99.90;;;;;;4858464;29;20038;-80
2021/11/25 01:15:16;;;;;;;50.33;18.95;;;7.40;99.90;;;;;;4860085;29;20059;-80
2021/11/25 01:17:43;;;;;;;62.05;19.67;;;7.30;99.90;;;;;;4857276;29;20042;-81
2021/11/25 01:20:13;;;;;;;52.38;19.60;;;7.30;99.90;;;;;;4854180;29;20058;-81
2021/11/25 01:22:40;;;;;;;56.85;20.77;;;7.30;99.90;;;;;;4839675;29;20512;-81
2021/11/25 01:25:06;;;;;;;48.47;19.33;;;7.30;99.90;;;;;;4835778;29;20042;-81
2021/11/25 01:27:32;;;;;;;51.67;17.95;;;7.30;99.90;;;;;;4861572;29;20198;-81
2021/11/25 01:29:58;;;;;;;56.28;20.33;;;7.30;99.90;;;;;;4862773;29;20153;-81
2021/11/25 01:32:23;;;;;;;48.38;18.45;;;7.30;99.90;;;;;;4849193;29;20483;-81
2021/11/25 01:34:52;;;;;;;48.42;18.13;;;7.40;99.90;;;;;;4857291;29;20048;-80
2021/11/25 01:37:17;;;;;;;48.42;17.77;;;7.30;99.90;;;;;;4850623;29;20046;-80
2021/11/25 01:39:44;;;;;;;42.30;17.38;;;7.30;99.90;;;;;;4825765;29;20135;-80
2021/11/25 01:42:13;;;;;;;44.03;18.30;;;7.30;99.90;;;;;;4825827;29;20095;-80
2021/11/25 01:44:38;;;;;;;48.95;18.90;;;7.20;99.90;;;;;;4810200;29;20031;-81
2021/11/25 01:47:06;;;;;;;41.08;17.10;;;7.20;99.90;;;;;;4810299;29;20037;-80
2021/11/25 01:49:34;;;;;;;48.55;18.35;;;7.20;99.90;;;;;;4825218;29;20046;-79
2021/11/25 01:52:02;;;;;;;47.28;18.88;;;7.20;99.90;;;;;;4826149;29;20082;-80
2021/11/25 01:54:32;;;;;;;42.70;17.52;;;7.20;99.90;;;;;;4843934;29;20472;-81
2021/11/25 01:56:59;;;;;;;42.15;17.40;;;7.20;99.90;;;;;;4833532;29;20036;-81
2021/11/25 01:59:25;;;;;;;45.30;16.92;;;7.30;99.90;;;;;;4808483;29;20058;-81
2021/11/25 02:01:53;;;;;;;41.88;16.52;;;7.30;99.90;;;;;;4792076;29;20073;-80
2021/11/25 02:04:19;;;;;;;37.47;16.90;;;7.20;99.90;;;;;;4792772;29;20074;-80
2021/11/25 02:06:44;;;;;;;40.13;15.68;;;7.20;99.90;;;;;;4803271;29;20532;-80
2021/11/25 02:09:11;;;;;;;41.03;17.27;;;7.20;99.90;;;;;;4806773;29;20054;-80
2021/11/25 02:11:38;;;;;;;36.45;15.18;;;7.20;99.90;;;;;;4822428;29;20429;-78
2021/11/25 02:14:05;;;;;;;43.58;17.33;;;7.20;99.90;;;;;;4809491;29;20030;-81
2021/11/25 02:16:31;;;;;;;39.47;14.52;;;7.20;99.90;;;;;;4797333;29;20129;-82
2021/11/25 02:18:59;;;;;;;33.25;14.57;;;7.20;99.90;;;;;;4825112;29;20158;-82
2021/11/25 02:21:29;;;;;;;45.65;17.55;;;7.20;99.90;;;;;;4825615;29;20548;-80
2021/11/25 02:23:56;;;;;;;37.90;16.15;;;7.20;99.90;;;;;;4825667;29;20185;-81
2021/11/25 02:26:22;;;;;;;37.03;16.65;;;7.20;99.90;;;;;;4825070;29;20034;-79
2021/11/25 02:28:48;;;;;;;36.22;16.50;;;7.20;99.90;;;;;;4825836;29;20496;-81
2021/11/25 02:31:15;;;;;;;40.17;16.88;;;7.20;99.90;;;;;;4825037;29;20042;-80
2021/11/25 02:33:44;;;;;;;36.88;15.55;;;7.20;99.90;;;;;;4790940;29;20066;-80
2021/11/25 02:36:12;;;;;;;45.22;17.48;;;7.20;99.90;;;;;;4793191;29;20043;-80
2021/11/25 02:38:39;;;;;;;39.58;16.08;;;7.20;99.90;;;;;;4807561;29;20049;-80
2021/11/25 02:41:05;;;;;;;41.80;16.80;;;7.20;99.90;;;;;;4830627;29;20030;-80
2021/11/25 02:43:34;;;;;;;41.65;16.15;;;7.20;99.90;;;;;;4825614;29;20049;-80
2021/11/25 02:45:59;;;;;;;;;;;7.30;99.90;;;;;;4821499;29;20034;-79
2021/11/25 02:48:32;;;;;;;30.33;14.27;;;7.30;99.90;;;;;;4825227;29;20045;-80
2021/11/25 02:50:59;;;;;;;33.28;14.52;;;7.30;99.90;;;;;;4794740;29;20134;-81
2021/11/25 02:53:30;;;;;;;40.28;15.02;;;7.30;99.90;;;;;;4809343;29;20035;-79
2021/11/25 02:55:57;;;;;;;35.97;16.25;;;7.30;99.90;;;;;;4808989;29;20044;-80
2021/11/25 02:58:25;;;;;;;34.53;15.23;;;7.40;99.90;;;;;;4824589;29;20038;-81
2021/11/25 03:00:54;;;;;;;38.60;17.05;;;7.30;99.90;;;;;;4830199;29;20121;-79
2021/11/25 03:03:20;;;;;;;46.40;16.13;;;7.30;99.90;;;;;;4824197;29;20057;-80
2021/11/25 03:05:50;;;;;;;37.72;15.77;;;7.30;99.90;;;;;;4833160;29;20037;-80
2021/11/25 03:08:18;;;;;;;43.90;17.75;;;7.30;99.90;;;;;;4847417;29;20029;-78
2021/11/25 03:10:50;;;;;;;39.90;15.13;;;7.30;99.90;;;;;;4864870;29;20116;-77
2021/11/25 03:13:18;;;;;;;43.47;17.30;;;7.30;99.90;;;;;;4846787;29;20406;-77
2021/11/25 03:15:44;;;;;;;;;;;7.20;99.90;;;;;;4864010;29;20040;-78
2021/11/25 03:18:11;;;;;;;37.55;15.40;;;7.30;99.90;;;;;;4848569;29;19912;-78
2021/11/25 03:20:38;;;;;;;43.63;17.23;;;7.30;99.90;;;;;;4849043;29;20033;-78
2021/11/25 03:23:08;;;;;;;48.40;18.42;;;7.20;99.90;;;;;;4848457;29;20048;-77
2021/11/25 03:25:34;;;;;;;44.97;19.02;;;7.20;99.90;;;;;;4864838;29;20061;-78
2021/11/25 03:28:00;;;;;;;49.38;18.08;;;7.10;99.90;;;;;;4864566;29;20032;-77
2021/11/25 03:30:26;;;;;;;50.38;18.50;;;7.00;99.90;;;;;;4847982;29;20086;-78
2021/11/25 03:32:52;;;;;;;41.38;19.63;;;7.00;99.90;;;;;;4864511;29;20037;-77
2021/11/25 03:35:18;;;;;;;44.42;18.25;;;7.00;99.90;;;;;;4847733;29;20032;-77
2021/11/25 03:37:44;;;;;;;46.47;18.73;;;7.00;99.90;;;;;;4864849;29;20498;-77
2021/11/25 03:40:11;;;;;;;48.28;19.00;;;7.00;99.90;;;;;;4875528;29;20025;-78
2021/11/25 03:42:37;;;;;;;49.80;19.58;;;6.90;99.90;;;;;;4869167;29;20411;-77
2021/11/25 03:45:06;;;;;;;43.20;16.63;;;6.90;99.90;;;;;;4864348;29;20030;-78
2021/11/25 03:47:31;;;;;;;46.10;18.65;;;6.90;99.90;;;;;;4847565;29;20063;-79
2021/11/25 03:49:57;;;;;;;36.90;16.83;;;6.90;99.90;;;;;;4862406;29;20021;-79
2021/11/25 03:52:23;;;;;;;42.92;18.98;;;7.00;99.90;;;;;;4844796;29;20017;-77
2021/11/25 03:54:54;;;;;;;44.90;18.17;;;7.00;99.90;;;;;;4861429;29;20033;-77
2021/11/25 03:57:21;;;;;;;51.30;18.60;;;7.00;99.90;;;;;;4861650;29;20487;-78
2021/11/25 03:59:47;;;;;;;38.50;16.77;;;7.00;99.90;;;;;;4868477;29;20575;-78
2021/11/25 04:02:12;;;;;;;48.13;18.42;;;7.00;99.90;;;;;;4844278;29;20053;-78
2021/11/25 04:04:38;;;;;;;48.25;19.52;;;6.90;99.90;;;;;;4861687;29;20026;-78
2021/11/25 04:07:04;;;;;;;45.58;18.83;;;6.90;99.90;;;;;;4861058;29;20100;-78
2021/11/25 04:09:30;;;;;;;49.15;19.23;;;6.90;99.90;;;;;;4861196;29;20041;-78
2021/11/25 04:11:55;;;;;;;43.33;18.35;;;6.90;99.90;;;;;;4844767;29;20033;-77
2021/11/25 04:14:21;;;;;;;46.10;19.52;;;6.90;99.90;;;;;;4861437;29;20029;-79
2021/11/25 04:16:47;;;;;;;48.72;19.77;;;6.80;99.90;;;;;;4860592;29;20051;-78
2021/11/25 04:19:13;;;;;;;46.97;18.45;;;6.70;99.90;;;;;;4845530;29;20046;-79
2021/11/25 04:21:38;;;;;;;46.60;19.23;;;6.70;99.90;;;;;;4861220;29;20033;-78
2021/11/25 04:24:04;;;;;;;43.30;17.73;;;6.80;99.90;;;;;;4860848;29;20029;-78
2021/11/25 04:26:30;;;;;;;44.78;19.05;;;6.70;99.90;;;;;;4860940;29;20025;-79
2021/11/25 04:28:56;;;;;;;51.08;19.50;;;6.70;99.90;;;;;;4846060;29;20081;-79
2021/11/25 04:36:51;;;;;;;48.58;19.65;;;6.60;99.90;;;;;;4861877;29;20068;-79
2021/11/25 04:39:17;;;;;;;50.67;20.05;;;6.50;99.90;;;;;;4871083;29;20037;-79
2021/11/25 04:41:42;;;;;;;51.33;19.00;;;6.60;99.90;;;;;;4863956;29;20022;-79
2021/11/25 04:44:08;;;;;;;57.25;20.27;;;6.50;99.90;;;;;;4861136;29;20118;-79
2021/11/25 04:46:35;;;;;;;47.88;17.80;;;6.50;99.90;;;;;;4844593;29;20479;-79
2021/11/25 04:49:01;;;;;;;43.80;18.48;;;6.50;99.90;;;;;;4861046;29;20038;-79
2021/11/25 04:51:26;;;;;;;49.33;19.35;;;6.50;99.90;;;;;;4845563;29;20388;-78
2021/11/25 04:53:54;;;;;;;51.28;20.15;;;6.60;99.90;;;;;;4845246;29;20033;-78
2021/11/25 04:56:19;;;;;;;49.03;20.80;;;6.60;99.90;;;;;;4862102;29;20037;-78
2021/11/25 04:58:45;;;;;;;45.20;18.90;;;6.60;99.90;;;;;;4861936;29;20038;-79
2021/11/25 05:01:10;;;;;;;43.08;19.60;;;6.50;99.90;;;;;;4862903;29;20049;-78
2021/11/25 05:03:36;;;;;;;48.05;19.63;;;6.50;99.90;;;;;;4864740;29;20081;-78
2021/11/25 05:06:03;;;;;;;49.60;20.17;;;6.50;99.90;;;;;;4864089;29;20026;-77
2021/11/25 05:08:29;;;;;;;35.38;14.13;;;6.50;99.90;;;;;;4847484;29;20025;-78
2021/11/25 05:10:55;;;;;;;52.10;20.42;;;6.50;99.90;;;;;;4848198;29;20077;-78
2021/11/25 05:13:20;;;;;;;49.10;19.80;;;6.40;99.90;;;;;;4863027;29;20046;-78
2021/11/25 05:15:47;;;;;;;45.60;19.15;;;6.40;99.90;;;;;;4840214;29;20375;-79
2021/11/25 05:18:13;;;;;;;55.45;21.02;;;6.40;99.90;;;;;;4847695;29;20022;-79
2021/11/25 05:20:39;;;;;;;54.40;20.25;;;6.40;99.90;;;;;;4864004;29;20032;-78
2021/11/25 05:23:06;;;;;;;46.65;19.38;;;6.40;99.90;;;;;;4864083;29;20042;-78
2021/11/25 05:25:31;;;;;;;52.70;21.70;;;6.40;99.90;;;;;;4857047;29;20028;-78
2021/11/25 05:27:57;;;;;;;57.63;19.50;;;6.40;99.90;;;;;;4862806;29;20036;-77
2021/11/25 05:30:23;;;;;;;55.33;21.13;;;6.40;99.90;;;;;;4846859;29;20025;-76
2021/11/25 05:32:49;;;;;;;46.42;19.15;;;6.40;99.90;;;;;;4864183;29;20066;-77
2021/11/25 05:35:16;;;;;;;47.72;18.58;;;6.50;99.90;;;;;;4864712;29;20043;-78
2021/11/25 05:37:42;;;;;;;51.22;21.20;;;6.50;99.90;;;;;;4863989;29;20061;-77
2021/11/25 05:40:10;;;;;;;47.70;19.40;;;6.40;99.90;;;;;;4863731;29;20040;-77
2021/11/25 05:42:36;;;;;;;52.63;21.63;;;6.40;99.90;;;;;;4846521;29;20037;-77
2021/11/25 05:45:04;;;;;;;48.33;19.15;;;6.40;99.90;;;;;;4846507;29;20014;-77
2021/11/25 05:47:34;;;;;;;48.13;19.38;;;6.40;99.90;;;;;;4863930;29;20578;-77
2021/11/25 05:50:05;;;;;;;47.47;19.73;;;6.40;99.90;;;;;;4862376;29;20209;-77
2021/11/25 05:52:31;;;;;;;51.15;19.63;;;6.40;99.90;;;;;;4863772;29;20025;-77
2021/11/25 05:54:56;;;;;;;51.88;21.13;;;6.40;99.90;;;;;;4851597;29;20491;-77
2021/11/25 05:57:22;;;;;;;49.22;19.20;;;6.40;99.90;;;;;;4863365;29;20041;-77
2021/11/25 05:59:47;;;;;;;45.83;20.20;;;6.40;99.90;;;;;;4863370;29;20033;-77
2021/11/25 06:02:14;;;;;;;52.20;20.27;;;6.50;99.90;;;;;;4849756;29;20089;-80
2021/11/25 06:04:40;;;;;;;46.80;20.52;;;6.40;99.90;;;;;;4848575;29;20467;-77
2021/11/25 06:07:06;;;;;;;51.85;19.90;;;6.40;99.90;;;;;;4847461;29;20103;-78
2021/11/25 06:09:31;;;;;;;54.88;20.80;;;6.40;99.90;;;;;;4846873;29;20030;-77
2021/11/25 06:11:57;;;;;;;54.65;19.75;;;6.50;99.90;;;;;;4863819;29;20485;-77
2021/11/25 06:14:23;;;;;;;44.05;19.20;;;6.50;99.90;;;;;;4864944;29;20025;-78
2021/11/25 06:16:48;;;;;;;49.42;19.50;;;6.60;99.90;;;;;;4847336;29;20510;-79
2021/11/25 06:19:14;;;;;;;54.75;19.95;;;6.50;99.90;;;;;;4862944;29;20038;-77
2021/11/25 06:21:40;;;;;;;47.88;19.95;;;6.60;99.90;;;;;;4862929;29;20041;-77
2021/11/25 06:24:06;;;;;;;45.35;19.48;;;6.60;99.90;;;;;;4846885;29;20056;-76
2021/11/25 06:26:31;;;;;;;50.90;20.20;;;6.60;99.90;;;;;;4846644;29;20130;-79
2021/11/25 06:28:57;;;;;;;54.13;20.30;;;6.70;99.90;;;;;;4850437;29;20060;-80
2021/11/25 06:31:23;;;;;;;47.42;20.00;;;6.70;99.90;;;;;;4862272;29;20033;-78
2021/11/25 06:33:49;;;;;;;51.45;20.88;;;6.70;99.90;;;;;;4862914;29;20061;-78
2021/11/25 06:36:14;;;;;;;45.78;19.08;;;6.60;99.90;;;;;;4862854;29;20491;-76
2021/11/25 06:38:41;;;;;;;47.88;19.30;;;6.60;99.90;;;;;;4862503;29;20076;-77
2021/11/25 06:41:07;;;;;;;53.00;20.20;;;6.60;99.90;;;;;;4845390;29;20038;-77
2021/11/25 06:43:34;;;;;;;57.25;20.98;;;6.60;99.90;;;;;;4862747;29;20029;-77
2021/11/25 06:46:00;;;;;;;55.30;21.02;;;6.60;99.90;;;;;;4845907;29;20108;-77
2021/11/25 06:48:25;;;;;;;55.63;21.98;;;6.60;99.90;;;;;;4862355;29;20064;-77
2021/11/25 06:50:51;;;;;;;49.30;19.83;;;6.60;99.90;;;;;;4862686;29;20029;-77
2021/11/25 06:53:17;;;;;;;51.08;20.85;;;6.70;99.90;;;;;;4870670;29;20088;-78
2021/11/25 06:55:43;;;;;;;54.08;22.60;;;6.70;99.90;;;;;;4863644;29;20037;-78
2021/11/25 06:58:09;;;;;;;55.92;21.60;;;6.70;99.90;;;;;;4843134;29;20041;-77
2021/11/25 07:00:35;;;;;;;53.47;20.52;;;6.80;99.90;;;;;;4845263;29;20085;-77
2021/11/25 07:03:00;;;;;;;57.65;21.00;;;6.70;99.90;;;;;;4844903;29;20060;-78
2021/11/25 07:05:27;;;;;;;50.55;19.27;;;6.80;99.90;;;;;;4860563;29;20033;-78
2021/11/25 07:07:54;;;;;;;50.80;20.42;;;6.80;99.90;;;;;;4860891;29;20115;-77
2021/11/25 07:10:20;;;;;;;53.67;19.98;;;6.80;99.90;;;;;;4862464;29;20061;-78
2021/11/25 07:12:46;;;;;;;47.58;19.75;;;6.80;99.90;;;;;;4865130;29;20026;-78
2021/11/25 07:15:15;;;;;;;57.72;21.23;;;6.80;99.90;;;;;;4855192;29;20064;-78
2021/11/25 07:17:41;;;;;;;53.55;19.80;;;6.80;99.90;;;;;;4850234;29;20041;-78
2021/11/25 07:20:09;;;;;;;53.10;20.55;;;6.80;99.90;;;;;;4865226;29;20045;-78
2021/11/25 07:22:35;;;;;;;46.33;19.02;;;6.80;99.90;;;;;;4846459;29;20403;-78
2021/11/25 07:25:02;;;;;;;50.80;18.83;;;6.90;99.90;;;;;;4862866;29;20860;-78
2021/11/25 07:27:27;;;;;;;51.35;19.10;;;6.90;99.90;;;;;;4862446;29;20380;-77
2021/11/25 07:29:53;;;;;;;50.75;20.05;;;6.90;99.90;;;;;;4863479;29;20045;-77
2021/11/25 07:32:19;;;;;;;53.20;21.63;;;7.00;99.90;;;;;;4857025;29;20503;-78
2021/11/25 07:34:45;;;;;;;56.75;20.63;;;7.00;99.90;;;;;;4864324;29;20399;-77
2021/11/25 07:37:10;;;;;;;54.90;20.23;;;7.00;99.90;;;;;;4851996;29;20025;-77
2021/11/25 07:39:36;;;;;;;55.50;19.92;;;7.00;99.90;;;;;;4864784;29;20090;-78
2021/11/25 07:42:02;;;;;;;49.33;20.77;;;7.10;99.90;;;;;;4863708;29;20033;-78
2021/11/25 07:44:27;;;;;;;60.50;21.02;;;7.10;99.90;;;;;;4859556;29;20062;-77
2021/11/25 07:46:53;;;;;;;56.90;20.20;;;7.10;99.90;;;;;;4848351;29;20029;-78
2021/11/25 07:49:20;;;;;;;57.00;20.02;;;7.10;99.90;;;;;;4863362;29;20045;-77
2021/11/25 07:51:46;;;;;;;48.20;19.95;;;7.10;99.90;;;;;;4864439;29;20033;-77
2021/11/25 07:54:12;;;;;;;56.63;19.88;;;7.10;99.90;;;;;;4862113;29;20415;-80
2021/11/25 07:56:59;;;;;;;49.58;19.30;;;7.10;99.90;;;;;;4865746;29;20074;-81
2021/11/25 07:59:28;;;;;;;62.67;21.38;;;7.20;99.90;;;;;;4864864;29;20037;-78
2021/11/25 08:01:56;;;;;;;53.67;20.73;;;7.20;99.90;;;;;;4863630;29;20561;-79
2021/11/25 08:04:22;;;;;;;54.60;20.00;;;7.20;99.90;;;;;;4863864;29;20042;-81
2021/11/25 08:06:48;;;;;;;51.05;19.90;;;7.20;99.90;;;;;;4846917;29;20049;-80
2021/11/25 08:09:16;;;;;;;55.53;19.67;;;7.30;99.90;;;;;;4864725;29;20066;-79
2021/11/25 08:11:42;;;;;;;39.00;15.35;;;7.30;99.90;;;;;;4847024;29;20033;-78
2021/11/25 08:14:08;;;;;;;54.53;21.40;;;7.30;99.90;;;;;;4850249;29;20033;-79
2021/11/25 08:16:38;;;;;;;58.67;20.70;;;7.30;99.90;;;;;;4866551;29;20452;-79
2021/11/25 08:19:10;;;;;;;59.75;21.98;;;7.30;99.90;;;;;;4851305;29;20041;-79
2021/11/25 08:21:36;;;;;;;58.10;20.52;;;7.30;99.90;;;;;;4867426;29;20068;-80
2021/11/25 08:24:02;;;;;;;51.65;19.92;;;7.40;99.90;;;;;;4849403;29;20062;-80
2021/11/25 08:26:28;;;;;;;54.15;20.45;;;7.40;99.90;;;;;;4866754;29;20037;-80
2021/11/25 08:28:54;;;;;;;50.15;19.75;;;7.40;99.90;;;;;;4852507;29;20041;-80
2021/11/25 08:31:20;;;;;;;54.30;20.65;;;7.50;99.90;;;;;;4872669;29;20098;-78
2021/11/25 08:33:46;;;;;;;56.17;19.20;;;7.50;99.90;;;;;;4856989;29;20049;-82
2021/11/25 08:36:12;;;;;;;50.38;20.67;;;7.50;99.90;;;;;;4867801;29;20034;-79
2021/11/25 08:38:38;;;;;;;50.28;19.15;;;7.50;99.90;;;;;;4851343;29;20044;-80
2021/11/25 08:41:04;;;;;;;47.42;19.42;;;7.50;99.90;;;;;;4866683;29;20035;-82
2021/11/25 08:43:32;;;;;;;47.65;19.63;;;7.60;99.90;;;;;;4851480;29;20508;-76
2021/11/25 08:45:58;;;;;;;;;;;7.60;99.90;;;;;;4851096;29;20025;-81
2021/11/25 08:48:24;;;;;;;49.10;18.33;;;7.60;99.90;;;;;;4879537;29;19924;-82
2021/11/25 08:50:53;;;;;;;46.35;19.45;;;7.60;99.90;;;;;;4872556;29;20021;-82
2021/11/25 08:53:22;;;;;;;55.38;20.52;;;7.50;99.90;;;;;;4847292;29;20398;-82
2021/11/25 08:55:49;;;;;;;58.30;20.65;;;7.50;99.90;;;;;;4867708;29;20051;-78
2021/11/25 08:58:16;;;;;;;52.78;19.55;;;7.40;99.90;;;;;;4868538;29;20089;-79
2021/11/25 09:00:41;;;;;;;49.55;19.33;;;7.50;99.90;;;;;;4883755;29;20055;-79
2021/11/25 09:03:07;;;;;;;69.30;22.17;;;7.50;99.90;;;;;;4867267;29;20069;-79
2021/11/25 09:05:33;;;;;;;57.28;19.63;;;7.50;99.90;;;;;;4883115;29;20028;-80
2021/11/25 09:08:00;;;;;;;57.97;19.73;;;7.50;99.90;;;;;;4869226;29;20052;-80
2021/11/25 09:10:26;;;;;;;58.17;20.55;;;7.50;99.90;;;;;;4876198;29;20025;-80
2021/11/25 09:12:51;;;;;;;66.80;21.33;;;7.60;99.90;;;;;;4884537;29;20037;-79
2021/11/25 09:15:17;;;;;;;55.30;20.90;;;7.60;99.90;;;;;;4881399;29;20037;-79
2021/11/25 09:17:44;;;;;;;64.85;23.30;;;7.60;99.90;;;;;;4884622;29;20049;-79
2021/11/25 09:20:10;;;;;;;53.10;20.85;;;7.70;99.90;;;;;;4884320;29;20010;-79
2021/11/25 09:22:38;;;;;;;56.88;19.90;;;7.80;99.90;;;;;;4884174;29;20037;-79
2021/11/25 09:25:05;;;;;;;54.08;21.50;;;7.80;99.90;;;;;;4867553;29;20014;-80
2021/11/25 09:27:31;;;;;;;59.90;20.63;;;7.90;99.90;;;;;;4880769;29;20042;-79
2021/11/25 09:29:57;;;;;;;57.80;21.85;;;7.90;99.90;;;;;;4881153;29;20086;-79
2021/11/25 09:32:23;;;;;;;63.47;20.23;;;7.90;99.90;;;;;;4852934;29;20053;-81
2021/11/25 09:34:49;;;;;;;51.20;19.23;;;7.90;99.90;;;;;;4863933;29;20037;-79
2021/11/25 09:37:15;;;;;;;50.25;19.13;;;7.90;99.90;;;;;;4838346;29;20025;-80
2021/11/25 09:39:40;;;;;;;46.65;19.35;;;8.00;99.90;;;;;;4863307;29;20520;-80
2021/11/25 09:42:06;;;;;;;56.67;19.63;;;8.00;99.90;;;;;;4862640;29;20169;-81
2021/11/25 09:44:32;;;;;;;53.65;18.95;;;7.90;99.90;;;;;;4863641;29;20040;-80
2021/11/25 09:46:59;;;;;;;48.90;19.00;;;8.00;99.90;;;;;;4845089;29;20037;-80
2021/11/25 09:49:27;;;;;;;55.28;18.52;;;8.00;99.90;;;;;;4855873;29;20095;-81
2021/11/25 09:51:55;;;;;;;55.38;20.38;;;8.00;99.90;;;;;;4845894;29;20044;-81
2021/11/25 09:54:22;;;;;;;62.15;21.30;;;8.00;99.90;;;;;;4861537;29;20041;-81
2021/11/25 09:56:49;;;;;;;58.08;17.83;;;8.10;99.90;;;;;;4847517;29;20041;-81
2021/11/25 09:59:17;;;;;;;56.20;20.35;;;8.20;99.90;;;;;;4847471;29;20037;-80
2021/11/25 10:01:43;;;;;;;49.90;18.73;;;8.30;99.90;;;;;;4863268;29;20029;-78
2021/11/25 10:04:09;;;;;;;44.83;17.25;;;8.40;99.90;;;;;;4864168;29;20050;-78
2021/11/25 10:06:54;;;;;;;53.63;17.17;;;8.50;99.90;;;;;;4863510;29;20037;-80
2021/11/25 10:09:38;;;;;;;53.13;20.02;;;8.60;99.90;;;;;;4870988;29;20044;-80
2021/11/25 10:12:36;;;;;;;47.42;18.30;;;8.70;99.90;;;;;;4868356;29;20093;-81
2021/11/25 10:15:21;;;;;;;56.55;18.75;;;8.80;99.90;;;;;;4863186;29;20105;-81
2021/11/25 10:17:50;;;;;;;44.47;16.67;;;8.90;99.90;;;;;;4847518;29;20569;-79
2021/11/25 10:20:19;;;;;;;47.72;16.25;;;9.10;99.90;;;;;;4847797;29;20041;-78
2021/11/25 10:23:04;;;;;;;42.38;16.55;;;9.20;99.90;;;;;;4867438;29;20046;-81
2021/11/25 10:25:55;;;;;;;37.25;16.67;;;9.20;99.90;;;;;;4861524;29;20041;-78
2021/11/25 10:28:23;;;;;;;36.47;14.77;;;9.20;99.90;;;;;;4875744;29;20052;-80
2021/11/25 10:30:51;;;;;;;43.08;15.70;;;9.30;99.90;;;;;;4856455;29;20022;-78
2021/11/25 10:33:21;;;;;;;;;;;9.40;99.90;;;;;;4849221;29;20041;-80
2021/11/25 10:36:05;;;;;;;46.05;14.23;;;9.50;99.90;;;;;;4864402;29;19912;-79
2021/11/25 10:38:57;;;;;;;43.13;13.52;;;9.60;99.90;;;;;;4864220;29;20649;-82
2021/11/25 10:41:25;;;;;;;35.10;12.13;;;9.60;99.90;;;;;;4864121;29;20037;-81
2021/11/25 10:44:26;;;;;;;45.58;13.05;;;9.60;99.90;;;;;;4848089;29;20045;-78
2021/11/25 10:47:17;;;;;;;33.92;12.30;;;9.60;99.90;;;;;;4842001;29;20034;-79
2021/11/25 10:49:55;;;;;;;40.40;14.30;;;9.70;99.90;;;;;;4861915;29;20093;-79
2021/11/25 10:52:30;;;;;;;44.42;12.82;;;9.80;99.90;;;;;;4846395;29;20037;-79
2021/11/25 10:55:00;;;;;;;30.98;11.63;;;10.00;99.90;;;;;;4847070;29;20098;-79
2021/11/25 10:57:47;;;;;;;23.25;9.15;;;10.00;99.90;;;;;;4846882;29;20041;-79
2021/11/25 11:00:24;;;;;;;32.60;10.77;;;10.00;99.90;;;;;;4846257;29;20026;-79
2021/11/25 11:03:03;;;;;;;26.75;10.00;;;10.00;99.90;;;;;;4863313;29;20665;-78
2021/11/25 11:05:29;;;;;;;25.60;8.38;;;10.00;99.90;;;;;;4846409;29;20074;-79
2021/11/25 11:08:05;;;;;;;22.55;7.35;;;9.90;99.90;;;;;;4864080;29;20134;-79
2021/11/25 11:10:32;;;;;;;;;;;9.90;99.90;;;;;;4846863;29;20457;-79
2021/11/25 11:13:26;;;;;;;25.15;7.43;;;10.00;99.90;;;;;;4862882;29;19977;-79
2021/11/25 11:21:30;;;;;;;17.00;6.80;;;10.00;99.90;;;;;;4862525;29;20108;-80
2021/11/25 11:23:58;;;;;;;19.88;5.93;;;10.00;99.90;;;;;;4845917;29;20121;-78
2021/11/25 11:26:24;;;;;;;17.63;5.80;;;10.00;99.90;;;;;;4845840;29;20029;-79
2021/11/25 11:28:50;;;;;;;15.75;6.85;;;10.00;99.90;;;;;;4845696;29;20118;-79
2021/11/25 11:31:16;;;;;;;16.75;6.10;;;10.10;99.90;;;;;;4862233;29;20037;-80
2021/11/25 11:33:42;;;;;;;17.05;5.13;;;10.00;99.90;;;;;;4862225;29;20044;-79
2021/11/25 11:36:08;;;;;;;10.45;4.45;;;10.10;99.90;;;;;;4862503;29;20086;-79
2021/11/25 11:38:35;;;;;;;9.27;4.22;;;10.00;99.90;;;;;;4862335;29;20033;-79
2021/11/25 11:41:03;;;;;;;11.88;2.85;;;10.00;99.90;;;;;;4862989;29;20034;-78
2021/11/25 11:43:30;;;;;;;9.73;3.10;;;10.00;99.90;;;;;;4862866;29;20037;-78
2021/11/25 11:45:56;;;;;;;5.43;1.95;;;10.00;99.90;;;;;;4862587;29;20045;-79
2021/11/25 11:48:23;;;;;;;4.18;1.92;;;9.90;99.90;;;;;;4845634;29;20086;-79
2021/11/25 11:50:55;;;;;;;5.68;2.22;;;10.00;99.90;;;;;;4846124;29;20398;-79
2021/11/25 11:53:25;;;;;;;7.60;1.88;;;10.10;99.90;;;;;;4845707;29;20041;-79
2021/11/25 11:55:58;;;;;;;2.42;1.27;;;10.10;99.90;;;;;;4846018;29;20105;-79
2021/11/25 11:58:33;;;;;;;7.63;1.27;;;10.10;99.90;;;;;;4845552;29;20499;-80
2021/11/25 12:01:24;;;;;;;5.28;1.50;;;10.10;99.90;;;;;;4862050;29;20356;-79
2021/11/25 12:03:54;;;;;;;8.10;1.58;;;10.10;99.90;;;;;;4865512;29;20097;-79
2021/11/25 12:06:30;;;;;;;13.85;1.13;;;10.00;99.90;;;;;;4862350;29;20043;-79
2021/11/25 12:09:00;;;;;;;2.78;0.90;;;10.00;99.90;;;;;;4862500;29;20037;-80
2021/11/25 12:11:45;;;;;;;6.20;1.10;;;10.00;99.90;;;;;;4845799;29;20033;-80
2021/11/25 12:14:25;;;;;;;7.72;1.83;;;10.00;99.90;;;;;;4862136;29;20037;-80
2021/11/25 12:16:57;;;;;;;12.10;1.63;;;10.10;99.90;;;;;;4845161;29;20101;-80
2021/11/25 12:19:46;;;;;;;8.98;1.60;;;10.10;99.90;;;;;;4845470;29;20400;-80
2021/11/25 12:22:14;;;;;;;7.07;1.00;;;10.10;99.90;;;;;;4845130;29;20045;-79
2021/11/25 12:24:49;;;;;;;3.28;0.65;;;10.10;99.90;;;;;;4844985;29;20106;-80
2021/11/25 12:27:29;;;;;;;8.55;1.27;;;10.10;99.90;;;;;;4845128;29;20036;-79
2021/11/25 12:30:15;;;;;;;3.70;0.80;;;10.10;99.90;;;;;;4857357;29;20078;-79
2021/11/25 12:35:15;;;;;;;3.53;1.15;;;10.10;99.90;;;;;;4861597;29;20117;-78
2021/11/25 12:37:46;;;;;;;5.93;1.13;;;10.20;99.90;;;;;;4844621;29;20056;-80
2021/11/25 12:40:21;;;;;;;3.33;1.15;;;10.20;99.90;;;;;;4860916;29;20033;-80
2021/11/25 12:45:51;;;;;;;5.38;0.80;;;10.20;99.90;;;;;;4861403;29;20518;-80
2021/11/25 12:48:24;;;;;;;6.82;0.82;;;10.20;99.90;;;;;;4844969;29;20037;-80
2021/11/25 12:51:00;;;;;;;7.72;0.90;;;10.30;99.90;;;;;;4844528;29;20116;-79
2021/11/25 12:53:47;;;;;;;6.85;1.05;;;10.20;99.90;;;;;;4861724;29;20029;-81
2021/11/25 12:56:16;;;;;;;10.30;1.10;;;10.30;99.90;;;;;;4844316;29;20384;-80
2021/11/25 12:58:45;;;;;;;11.85;0.90;;;10.30;99.90;;;;;;4859356;29;20094;-80
2021/11/25 13:01:18;;;;;;;11.30;1.33;;;10.40;99.90;;;;;;4861244;29;20101;-81